ADDS METAR Data INFO
IDs: Format: Raw Decoded Include TAF

Data at: 1937 UTC 18 Feb 2018

PHTO 181853Z 17005KT 10SM FEW047 SCT060 22/18 A3001 RMK AO2 SLP160 T02220183
PHTO 181753Z 24004KT 10SM OVC048 21/17 A3001 RMK AO2 SLP160 T02110172 10211 20189 53014
PHTO 181706Z 18005KT 10SM FEW020 BKN034 OVC060 21/18 A3000 RMK AO2 T02060183
PHTO 181653Z 17006KT 10SM SCT021 BKN026 OVC060 21/18 A2999 RMK AO2 SLP155 T02060178
PHTO 181627Z 14008KT 10SM BKN019 BKN028 19/17 A2998 RMK AO2 T01940172
PHTO 181553Z 22006KT 10SM SCT060 19/16 A2996 RMK AO2 SLP144 T01940161
PHTO 181515Z AUTO 22005KT 10SM SCT019 BKN031 OVC065 19/16 A2996 RMK AO2 T01940161 TSNO
PHTO 181453Z AUTO 23006KT 10SM SCT022 BKN027 BKN033 19/16 A2997 RMK AO2 SLP147 T01940156 53001 TSNO
PHTO 181400Z AUTO 24006KT 10SM SCT017 BKN032 19/16 A2996 RMK AO2 T01940161 TSNO
PHTO 181353Z AUTO 24007KT 10SM BKN017 BKN032 20/16 A2996 RMK AO2 SLP144 T02000161 TSNO
PHTO 181253Z AUTO 24005KT 10SM CLR 19/17 A2996 RMK AO2 SLP144 T01890167 TSNO
PHTO 181220Z AUTO 23006KT 10SM SCT027 19/17 A2996 RMK AO2 T01940167 TSNO
PHTO 181153Z AUTO 21004KT 10SM BKN025 19/17 A2997 RMK AO2 SLP146 70081 T01940172 10228 20183 56012 TSNO
PHTO 181053Z AUTO 00000KT 10SM CLR 19/17 A2998 RMK AO2 SLP150 T01890172 TSNO
PHTO 180953Z AUTO 20006KT 10SM CLR 21/18 A2998 RMK AO2 SLP152 T02060178 402670200 TSNO
PHTO 180853Z AUTO 24005KT 10SM FEW017 SCT023 21/18 A3000 RMK AO2 SLP158 T02110183 51009 TSNO
PHTO 180800Z AUTO 20006KT 10SM FEW024 SCT060 22/19 A3000 RMK AO2 T02170189 TSNO
PHTO 180753Z 20006KT 10SM TS FEW027 BKN060 22/19 A3000 RMK AO2 SLP158 T02170189
PHTO 180743Z 20005KT 10SM TS SCT027 BKN060 21/19 A3001 RMK AO2 T02110194
PHTO 180736Z 21004KT 10SM TS FEW019 BKN027 22/20 A3001 RMK AO2 T02170200
PHTO 180653Z 25003KT 10SM TS FEW020 SCT027 BKN035 21/19 A2999 RMK AO2 SLP154 T02110194
PHTO 180619Z 00000KT 10SM TS SCT027 22/19 A2999 RMK AO2 T02220194
PHTO 180553Z 00000KT 10SM TS BKN027 22/20 A2998 RMK AO2 TSB36 SLP149 FREQ LTG DSNT NW T02220200 10267 20222 51007
PHTO 180548Z 00000KT 10SM TS BKN027 BKN065 22/19 A2997 RMK AO2 TSB36 FREQ LTG DSNT NW
PHTO 180536Z 00000KT 10SM TS FEW027 BKN065 22/19 A2997 RMK AO2 TSB36 T02220194
PHTO 180453Z 24003KT 10SM FEW055 SCT065 23/19 A2998 RMK AO2 SLP150 T02330194
PHTO 180353Z 12006KT 10SM FEW031 SCT046 24/19 A2995 RMK AO2 SLP142 T02390189
PHTO 180253Z 09009G19KT 10SM FEW023 26/19 A2993 RMK AO2 SLP135 T02560194 53018
PHTO 180153Z COR 06010KT 10SM FEW030 26/19 A2990 RMK AO2 PRESRR SLP124 T02610194
PHTO 180053Z 00000KT 10SM CLR 26/18 A2988 RMK AO2 SLP116 T02560178
PHTO 172353Z 12007KT 10SM CLR 24/18 A2988 RMK AO2 SLP117 60055 T02390183 10244 20200 56040
PHTO 172253Z 14012KT 10SM CLR 24/18 A2991 RMK AO2 SLP128 T02390178
PHTO 172153Z 19009KT 10SM SCT100 SCT120 23/18 A2996 RMK AO2 SLP145 T02280178
PHTO 172053Z 21006KT 10SM SCT120 22/19 A3000 RMK AO2 SLP157 60055 T02220189 58013
PHTO 171953Z 19005KT 10SM SCT120 22/19 A3003 RMK AO2 RAE34 SLP167 P0002 T02170189
PHTO 171900Z 25012KT 7SM RA FEW041 BKN080 OVC100 21/18 A3003 RMK AO2 P0001 T02060183
PHTO 171853Z 23010KT 5SM RA BR SCT010 BKN020 OVC046 20/19 A3003 RMK AO2 RAB00 SLP167 P0053 T02000189
PHTO 171847Z 24009KT 5SM RA BR SCT010 BKN020 OVC046 20/19 A3004 RMK AO2 RAB00 P0052
PHTO 171821Z 24010KT 2SM +RA BR BKN010 OVC046 21/19 A3005 RMK AO2 RAB00 P0009 T02060189
PHTO 171816Z 23004KT 1 3/4SM +RA BR FEW006 BKN046 OVC070 21/19 A3005 RMK AO2 RAB00 P0004 T02060194
PHTO 171753Z 26005KT 10SM BKN050 OVC060 21/19 A3004 RMK AO2 RAB14E50 SLP170 P0000 60026 T02110189 10211 20206 53034
PHTO 171715Z 18003KT 10SM -RA SCT011 OVC055 21/19 A3002 RMK AO2 RAB14 P0000 T02060194
PHTO 171702Z 14007KT 10SM BKN012 BKN023 OVC050 21/19 A3001 RMK AO2 T02060189
PHTO 171653Z 13007KT 10SM FEW010 SCT023 OVC055 21/19 A3000 RMK AO2 RAE24 SLP157 P0006 T02110194
PHTO 171634Z 19004KT 10SM FEW013 BKN046 OVC060 21/20 A2998 RMK AO2 RAE24 P0006 T02110200
PHTO 171615Z 16005KT 4SM -RA BR SCT007 BKN015 OVC029 21/20 A2997 RMK AO2 P0006 T02110200
PHTO 171605Z 15006KT 2 1/2SM RA BR OVC007 21/20 A2998 RMK AO2 P0003 T02110200
PHTO 171553Z 16004KT 6SM -RA BR OVC007 21/20 A2997 RMK AO2 RAB19 SLP146 P0006 T02110200
PHTO 171543Z 00000KT 7SM -RA OVC007 21/20 A2996 RMK AO2 RAB19 P0006 T02110200
PHTO 171531Z AUTO 19003KT 2SM +RA BR OVC009 21/20 A2996 RMK AO2 RAB19 P0002 T02110200 TSNO
PHTO 171453Z AUTO 00000KT 10SM BKN013 OVC018 21/20 A2994 RMK AO2 RAE21 SLP137 P0000 60014 T02110200 53004 TSNO
PHTO 171415Z AUTO 29003KT 5SM -RA BR SCT005 OVC015 21/20 A2993 RMK AO2 P0000 T02110200 TSNO
PHTO 171404Z AUTO 00000KT 5SM -RA BR BKN004 OVC013 21/20 A2993 RMK AO2 P0000 T02110200 TSNO
PHTO 171353Z AUTO 00000KT 5SM -RA BR FEW006 BKN013 OVC022 21/20 A2993 RMK AO2 SLP134 P0004 T02110200 TSNO
PHTO 171350Z AUTO 00000KT 4SM -RA BR FEW006 BKN013 OVC020 21/20 A2993 RMK AO2 P0003 TSNO
PHTO 171253Z AUTO 00000KT 4SM -RA BR FEW008 OVC016 21/20 A2993 RMK AO2 SLP133 P0010 T02110200 TSNO
PHTO 171233Z AUTO 00000KT 2SM RA BR SCT008 OVC014 21/20 A2993 RMK AO2 P0006 T02110200 TSNO
PHTO 171222Z AUTO 00000KT 2 1/2SM RA BR FEW008 BKN016 OVC023 21/20 A2993 RMK AO2 P0003 T02110200 TSNO
PHTO 171200Z AUTO 16005KT 5SM -RA BR BKN023 OVC033 21/20 A2993 RMK AO2 P0000 T02110200 TSNO
PHTO 171153Z AUTO 15005KT 3SM -RA BR SCT023 OVC033 21/20 A2993 RMK AO2 RAB21 SLP135 P0003 60005 70082 T02110200 10222 20211 56006 TSNO
PHTO 171053Z AUTO 20004KT 10SM OVC040 22/19 A2994 RMK AO2 SLP136 T02170194 TSNO
PHTO 170953Z AUTO 18004KT 10SM BKN042 OVC055 22/19 A2994 RMK AO2 SLP137 T02170194 402390211 TSNO
PHTO 170853Z AUTO 21003KT 10SM OVC048 21/19 A2995 RMK AO2 SLP141 60002 T02110194 51008 TSNO
PHTO 170753Z 21004KT 10SM BKN050 21/19 A2995 RMK AO2 TSE00 SLP139 T02110194